Time;durP1;ratioP1;P1;durP2;ratioP2;P2;SDS_P1;SDS_P2;PMS_P1;PMS_P2;Temp;Humidity;BMP_temperature;BMP_pressure;BME280_temperature;BME280_humidity;BME280_pressure;Samples;Min_cycle;Max_cycle;Signal;HPM_P1;HPM_P2
2022/05/05 00:00:45;;;;;;;;;;;;;;;19.59;nan;95504.91;2071416;28;1563;-58
2022/05/05 00:01:46;;;;;;;;;;;;;;;19.59;nan;95502.25;2071197;28;1574;-58
2022/05/05 00:02:48;;;;;;;;;;;;;;;19.60;nan;95514.53;2057487;28;1488;-58
2022/05/05 00:03:50;;;;;;;;;;;;;;;19.59;nan;95507.56;2057684;28;867;-58
2022/05/05 00:04:52;;;;;;;;;;;;;;;19.59;nan;95510.25;2055921;28;1906;-58
2022/05/05 00:05:54;;;;;;;;;;;;;;;19.60;nan;95509.22;2057881;28;1678;-58
2022/05/05 00:06:56;;;;;;;;;;;;;;;19.61;nan;95510.88;2057939;28;1622;-61
2022/05/05 00:07:58;;;;;;;;;;;;;;;19.60;nan;95507.38;2053492;28;1752;-58
2022/05/05 00:08:59;;;;;;;;;;;;;;;19.62;nan;95517.84;2052849;28;1520;-58
2022/05/05 00:14:23;;;;;;;;;;;;;;;19.60;nan;95504.69;2057329;28;1627;-59
2022/05/05 00:15:24;;;;;;;;;;;;;;;19.63;nan;95503.50;2057842;28;1465;-58
2022/05/05 00:16:27;;;;;;;;;;;;;;;19.62;nan;95507.19;2057800;28;1476;-58
2022/05/05 00:17:28;;;;;;;;;;;;;;;19.62;nan;95507.19;2057995;28;1587;-58
2022/05/05 00:18:30;;;;;;;;;;;;;;;19.62;nan;95509.84;2057537;28;1014;-59
2022/05/05 00:19:35;;;;;;;;;;;;;;;19.62;nan;95504.53;2050738;28;1611;-59
2022/05/05 00:20:36;;;;;;;;;;;;;;;19.62;nan;95504.53;2061868;28;1705;-59
2022/05/05 00:21:38;;;;;;;;;;;;;;;19.61;nan;95501.03;2057780;28;1704;-58
2022/05/05 00:22:40;;;;;;;;;;;;;;;19.61;nan;95506.38;2057908;28;1018;-58
2022/05/05 00:23:42;;;;;;;;;;;;;;;19.62;nan;95500.00;2057864;28;1031;-58
2022/05/05 00:24:43;;;;;;;;;;;;;;;19.60;nan;95501.22;2062349;28;1903;-58
2022/05/05 00:25:45;;;;;;;;;;;;;;;19.59;nan;95500.41;2065709;28;1108;-57
2022/05/05 00:26:47;;;;;;;;;;;;;;;19.58;nan;95498.75;2061387;28;1472;-58
2022/05/05 00:27:48;;;;;;;;;;;;;;;19.59;nan;95503.06;2058053;28;1112;-58
2022/05/05 00:28:50;;;;;;;;;;;;;;;19.60;nan;95493.22;2057729;28;1664;-59
2022/05/05 00:29:51;;;;;;;;;;;;;;;19.55;nan;95487.63;2057920;28;1692;-58
2022/05/05 00:30:53;;;;;;;;;;;;;;;19.59;nan;95495.06;2052247;28;1494;-59
2022/05/05 00:31:55;;;;;;;;;;;;;;;19.60;nan;95493.22;2069987;28;1652;-58
2022/05/05 00:32:57;;;;;;;;;;;;;;;19.60;nan;95493.22;2072402;28;1702;-58
2022/05/05 00:33:58;;;;;;;;;;;;;;;19.62;nan;95501.84;2057791;28;1100;-56
2022/05/05 00:35:00;;;;;;;;;;;;;;;19.61;nan;95502.88;2059302;28;1640;-58
2022/05/05 00:36:02;;;;;;;;;;;;;;;19.60;nan;95498.56;2065843;28;1100;-58
2022/05/05 00:37:04;;;;;;;;;;;;;;;19.59;nan;95507.56;2059426;28;1456;-58
2022/05/05 00:38:05;;;;;;;;;;;;;;;19.59;nan;95499.56;2058062;28;1086;-59
2022/05/05 00:39:07;;;;;;;;;;;;;;;19.61;nan;95498.38;2056743;28;1517;-59
2022/05/05 00:40:09;;;;;;;;;;;;;;;19.60;nan;95498.56;2056395;28;1722;-58
2022/05/05 00:41:11;;;;;;;;;;;;;;;19.60;nan;95498.56;2065787;28;1013;-58
2022/05/05 00:42:14;;;;;;;;;;;;;;;19.61;nan;95501.03;2059335;28;1466;-59
2022/05/05 00:43:16;;;;;;;;;;;;;;;19.60;nan;95503.88;2064027;28;986;-58
2022/05/05 00:44:18;;;;;;;;;;;;;;;19.59;nan;95499.56;2065648;28;1675;-59
2022/05/05 00:45:19;;;;;;;;;;;;;;;19.59;nan;95503.06;2069410;28;1903;-58
2022/05/05 00:46:21;;;;;;;;;;;;;;;19.60;nan;95495.88;2072499;28;1544;-58
2022/05/05 00:47:22;;;;;;;;;;;;;;;19.60;nan;95501.22;2049623;28;1034;-59
2022/05/05 00:48:26;;;;;;;;;;;;;;;19.59;nan;95497.72;2049881;29;1444;-58
2022/05/05 00:49:29;;;;;;;;;;;;;;;19.58;nan;95501.44;2053107;28;1653;-58
2022/05/05 00:50:35;;;;;;;;;;;;;;;19.60;nan;95498.56;2059634;28;1499;-59
2022/05/05 00:51:36;;;;;;;;;;;;;;;19.58;nan;95505.94;2065970;28;1013;-58
2022/05/05 00:52:38;;;;;;;;;;;;;;;19.59;nan;95502.25;2058305;28;1596;-58
2022/05/05 00:53:40;;;;;;;;;;;;;;;19.58;nan;95505.94;2049753;28;1105;-59
2022/05/05 00:54:41;;;;;;;;;;;;;;;19.57;nan;95504.28;2055654;28;1480;-60
2022/05/05 00:55:43;;;;;;;;;;;;;;;19.56;nan;95505.28;2060989;28;1568;-59
2022/05/05 00:56:45;;;;;;;;;;;;;;;19.56;nan;95497.31;2059843;28;1461;-59
2022/05/05 00:57:47;;;;;;;;;;;;;;;19.56;nan;95497.31;2064379;28;1031;-59
2022/05/05 00:58:49;;;;;;;;;;;;;;;19.56;nan;95499.97;2065077;28;1070;-59
2022/05/05 00:59:52;;;;;;;;;;;;;;;19.56;nan;95497.31;2063014;28;1622;-60
2022/05/05 01:00:54;;;;;;;;;;;;;;;19.56;nan;95490.13;2064125;28;1440;-59
2022/05/05 01:01:56;;;;;;;;;;;;;;;19.57;nan;95498.94;2062985;28;1707;-59
2022/05/05 01:02:58;;;;;;;;;;;;;;;19.57;nan;95491.75;2049189;29;999;-59
2022/05/05 01:04:00;;;;;;;;;;;;;;;19.60;nan;95498.56;2050763;28;1466;-59
2022/05/05 01:05:02;;;;;;;;;;;;;;;19.61;nan;95505.53;2048301;28;1902;-59
2022/05/05 01:06:04;;;;;;;;;;;;;;;19.62;nan;95499.19;2058434;28;1725;-59
2022/05/05 01:07:06;;;;;;;;;;;;;;;19.60;nan;95498.56;2065791;28;981;-60
2022/05/05 01:08:08;;;;;;;;;;;;;;;19.62;nan;95501.84;2065713;28;1109;-59
2022/05/05 01:09:10;;;;;;;;;;;;;;;19.63;nan;95506.16;2065785;28;1081;-60
2022/05/05 01:10:12;;;;;;;;;;;;;;;19.62;nan;95499.19;2062255;28;1513;-59
2022/05/05 01:11:13;;;;;;;;;;;;;;;19.61;nan;95495.72;2064158;28;1117;-61
2022/05/05 01:12:15;;;;;;;;;;;;;;;19.62;nan;95493.84;2061610;28;1485;-60
2022/05/05 01:13:17;;;;;;;;;;;;;;;19.61;nan;95501.03;2057604;28;1661;-59
2022/05/05 01:14:18;;;;;;;;;;;;;;;19.61;nan;95508.22;2057075;28;1443;-60
2022/05/05 01:15:20;;;;;;;;;;;;;;;19.60;nan;95509.22;2059035;28;1528;-61
2022/05/05 01:16:23;;;;;;;;;;;;;;;19.60;nan;95503.88;2062496;28;1573;-59
2022/05/05 01:17:26;;;;;;;;;;;;;;;19.59;nan;95504.91;2070326;28;1416;-59
2022/05/05 01:18:27;;;;;;;;;;;;;;;19.59;nan;95507.56;2060853;28;1660;-61
2022/05/05 01:19:29;;;;;;;;;;;;;;;19.59;nan;95510.25;2065520;28;1122;-60
2022/05/05 01:20:30;;;;;;;;;;;;;;;19.59;nan;95507.56;2062009;28;1563;-61
2022/05/05 01:21:32;;;;;;;;;;;;;;;19.59;nan;95507.56;2064507;28;1364;-61
2022/05/05 01:22:34;;;;;;;;;;;;;;;19.58;nan;95506.75;2059506;28;1760;-60
2022/05/05 01:23:35;;;;;;;;;;;;;;;19.58;nan;95505.94;2056772;28;1236;-59
2022/05/05 01:28:43;;;;;;;;;;;;;;;19.58;nan;95511.28;2054270;28;1608;-60
2022/05/05 01:29:44;;;;;;;;;;;;;;;19.58;nan;95516.59;2065536;28;1581;-63
2022/05/05 01:30:47;;;;;;;;;;;;;;;19.59;nan;95513.72;2063887;28;1522;-63
2022/05/05 01:31:48;;;;;;;;;;;;;;;19.60;nan;95511.88;2065105;28;998;-63
2022/05/05 01:32:50;;;;;;;;;;;;;;;19.59;nan;95507.56;2057377;28;1682;-62
2022/05/05 01:33:52;;;;;;;;;;;;;;;19.59;nan;95507.56;2057919;28;1089;-60
2022/05/05 01:34:53;;;;;;;;;;;;;;;19.60;nan;95511.88;2056638;28;1502;-59
2022/05/05 01:35:56;;;;;;;;;;;;;;;19.59;nan;95520.91;2063436;28;1531;-60
2022/05/05 01:36:57;;;;;;;;;;;;;;;19.61;nan;95513.53;2049563;28;1116;-60
2022/05/05 01:37:59;;;;;;;;;;;;;;;19.60;nan;95514.53;2063786;28;1506;-60
2022/05/05 01:39:01;;;;;;;;;;;;;;;19.61;nan;95513.53;2062592;28;1546;-61
2022/05/05 01:40:02;;;;;;;;;;;;;;;19.60;nan;95506.53;2056370;28;1599;-60
2022/05/05 01:41:05;;;;;;;;;;;;;;;19.61;nan;95513.53;2064261;28;1503;-60
2022/05/05 01:42:06;;;;;;;;;;;;;;;19.60;nan;95511.88;2065319;28;1008;-60
2022/05/05 01:43:08;;;;;;;;;;;;;;;19.59;nan;95510.25;2059756;28;1651;-59
2022/05/05 01:44:10;;;;;;;;;;;;;;;19.59;nan;95516.38;2057706;28;1527;-61
2022/05/05 01:45:12;;;;;;;;;;;;;;;19.59;nan;95518.25;2057008;28;1950;-60
2022/05/05 01:46:16;;;;;;;;;;;;;;;19.61;nan;95514.38;2062237;28;1524;-59
2022/05/05 01:47:18;;;;;;;;;;;;;;;19.60;nan;95514.53;2064434;28;1090;-60
2022/05/05 01:48:20;;;;;;;;;;;;;;;19.58;nan;95512.09;2063993;28;1678;-60
2022/05/05 01:49:21;;;;;;;;;;;;;;;19.62;nan;95515.19;2063695;28;1114;-59
2022/05/05 01:50:24;;;;;;;;;;;;;;;19.61;nan;95513.53;2054997;28;1562;-58
2022/05/05 01:51:26;;;;;;;;;;;;;;;19.60;nan;95512.69;2064328;28;1420;-59
2022/05/05 01:52:27;;;;;;;;;;;;;;;19.59;nan;95513.72;2063331;28;1650;-58
2022/05/05 01:53:36;;;;;;;;;;;;;;;19.59;nan;95523.56;2062591;28;1574;-58
2022/05/05 01:54:38;;;;;;;;;;;;;;;19.59;nan;95508.41;2060206;28;1674;-58
2022/05/05 01:55:40;;;;;;;;;;;;;;;19.57;nan;95515.75;2063628;28;1460;-58
2022/05/05 01:56:41;;;;;;;;;;;;;;;19.56;nan;95516.78;2057846;28;1502;-58
2022/05/05 01:57:43;;;;;;;;;;;;;;;19.58;nan;95513.94;2058383;28;1560;-58
2022/05/05 01:58:44;;;;;;;;;;;;;;;19.57;nan;95525.59;2063483;28;1498;-58
2022/05/05 01:59:46;;;;;;;;;;;;;;;19.57;nan;95528.25;2065610;28;1001;-59
2022/05/05 02:00:48;;;;;;;;;;;;;;;19.57;nan;95523.75;2057894;28;1493;-59
2022/05/05 02:01:49;;;;;;;;;;;;;;;19.56;nan;95523.97;2060037;28;1143;-58
2022/05/05 02:02:51;;;;;;;;;;;;;;;19.56;nan;95531.97;2065447;28;1014;-57
2022/05/05 02:03:53;;;;;;;;;;;;;;;19.56;nan;95521.28;2064176;28;1539;-59
2022/05/05 02:04:55;;;;;;;;;;;;;;;19.57;nan;95525.59;2061095;28;1780;-58
2022/05/05 02:05:56;;;;;;;;;;;;;;;19.56;nan;95521.28;2052016;28;1968;-58
2022/05/05 02:06:58;;;;;;;;;;;;;;;19.55;nan;95520.47;2057541;28;1113;-58
2022/05/05 02:07:59;;;;;;;;;;;;;;;19.55;nan;95517.81;2062174;28;1487;-58
2022/05/05 02:09:01;;;;;;;;;;;;;;;19.54;nan;95524.13;2056958;28;1630;-59
2022/05/05 02:10:03;;;;;;;;;;;;;;;19.55;nan;95522.28;2057381;28;1682;-59
2022/05/05 02:11:05;;;;;;;;;;;;;;;19.55;nan;95527.63;2060426;28;1697;-58
2022/05/05 02:12:07;;;;;;;;;;;;;;;19.55;nan;95522.28;2053184;28;1183;-58
2022/05/05 02:13:09;;;;;;;;;;;;;;;19.54;nan;95525.97;2058759;28;1467;-58
2022/05/05 02:14:11;;;;;;;;;;;;;;;19.54;nan;95531.31;2064182;28;1404;-60
2022/05/05 02:15:13;;;;;;;;;;;;;;;19.54;nan;95531.31;2064520;28;1478;-58
2022/05/05 02:16:15;;;;;;;;;;;;;;;19.55;nan;95524.94;2064963;28;1171;-58
2022/05/05 02:17:18;;;;;;;;;;;;;;;19.53;nan;95527.81;2063523;28;1566;-58
2022/05/05 02:18:19;;;;;;;;;;;;;;;19.55;nan;95527.63;2060651;28;1526;-58
2022/05/05 02:19:21;;;;;;;;;;;;;;;19.54;nan;95531.31;2071150;28;1475;-58
2022/05/05 02:20:23;;;;;;;;;;;;;;;19.47;nan;95525.09;2072431;28;1134;-59
2022/05/05 02:21:24;;;;;;;;;;;;;;;19.53;nan;95537.66;2056247;28;1516;-58
2022/05/05 02:22:26;;;;;;;;;;;;;;;19.53;nan;95540.34;2059034;28;1379;-58
2022/05/05 02:23:28;;;;;;;;;;;;;;;19.52;nan;95530.63;2051977;28;1470;-59
2022/05/05 02:24:29;;;;;;;;;;;;;;;19.53;nan;95530.50;2052472;28;1578;-58
2022/05/05 02:25:31;;;;;;;;;;;;;;;19.54;nan;95531.31;2065595;28;1149;-58
2022/05/05 02:26:33;;;;;;;;;;;;;;;19.54;nan;95536.66;2064234;28;1963;-58
2022/05/05 02:27:47;;;;;;;;;;;;;;;19.54;nan;95536.66;2065624;28;982;-58
2022/05/05 02:28:49;;;;;;;;;;;;;;;19.53;nan;95541.16;2060101;28;1695;-58
2022/05/05 02:29:52;;;;;;;;;;;;;;;19.53;nan;95541.16;2058559;28;1666;-59
2022/05/05 02:30:53;;;;;;;;;;;;;;;19.54;nan;95536.66;2062140;28;1693;-59
2022/05/05 02:31:55;;;;;;;;;;;;;;;19.54;nan;95536.66;2065081;28;1472;-59
2022/05/05 02:33:01;;;;;;;;;;;;;;;19.55;nan;95538.28;2065383;28;1478;-58
2022/05/05 02:34:08;;;;;;;;;;;;;;;19.55;nan;95538.28;2064675;28;1519;-58
2022/05/05 02:35:10;;;;;;;;;;;;;;;19.55;nan;95539.13;2062276;28;1301;-58
2022/05/05 02:38:52;;;;;;;;;;;;;;;19.55;nan;95546.28;2061097;28;1617;-58
2022/05/05 02:39:54;;;;;;;;;;;;;;;19.54;nan;95548.13;2064949;28;1572;-58
2022/05/05 02:40:56;;;;;;;;;;;;;;;19.53;nan;95548.34;2067092;28;1019;-58
2022/05/05 02:41:57;;;;;;;;;;;;;;;19.53;nan;95549.16;2065692;28;1785;-58
2022/05/05 02:42:59;;;;;;;;;;;;;;;19.54;nan;95547.31;2067095;28;1011;-57
2022/05/05 02:44:01;;;;;;;;;;;;;;;19.53;nan;95551.00;2063446;28;1545;-59
2022/05/05 02:45:03;;;;;;;;;;;;;;;19.54;nan;95552.63;2066680;28;1007;-58
2022/05/05 02:46:04;;;;;;;;;;;;;;;19.54;nan;95557.97;2060916;28;1902;-60
2022/05/05 02:47:06;;;;;;;;;;;;;;;19.56;nan;95553.28;2061762;28;1444;-59
2022/05/05 02:48:08;;;;;;;;;;;;;;;19.55;nan;95555.13;2067025;28;1118;-60
2022/05/05 02:49:12;;;;;;;;;;;;;;;19.55;nan;95552.47;2057707;28;1775;-58
2022/05/05 02:50:14;;;;;;;;;;;;;;;19.54;nan;95555.31;2061297;28;1550;-59
2022/05/05 02:51:17;;;;;;;;;;;;;;;19.55;nan;95552.47;2067206;28;899;-59
2022/05/05 02:52:18;;;;;;;;;;;;;;;19.55;nan;95548.94;2065581;28;1537;-59
2022/05/05 02:54:54;;;;;;;;;;;;;;;19.56;nan;95553.28;2066598;28;1006;-58
2022/05/05 02:55:56;;;;;;;;;;;;;;;19.56;nan;95556.75;2066117;28;967;-57
2022/05/05 02:56:57;;;;;;;;;;;;;;;19.56;nan;95555.94;2064835;28;1457;-58
2022/05/05 02:57:59;;;;;;;;;;;;;;;19.58;nan;95559.25;2055650;28;1667;-58
2022/05/05 02:59:01;;;;;;;;;;;;;;;19.57;nan;95560.25;2056706;28;1650;-58
2022/05/05 03:00:07;;;;;;;;;;;;;;;19.56;nan;95567.44;2066534;28;1110;-58
2022/05/05 03:01:09;;;;;;;;;;;;;;;19.56;nan;95558.59;2064267;28;1536;-58
2022/05/05 03:02:10;;;;;;;;;;;;;;;19.55;nan;95563.13;2066335;28;1093;-58
2022/05/05 03:03:12;;;;;;;;;;;;;;;19.49;nan;95565.69;2062027;28;1581;-60
2022/05/05 03:04:13;;;;;;;;;;;;;;;17.29;nan;95572.50;2060802;28;1614;-59
2022/05/05 03:05:15;;;;;;;;;;;;;;;15.29;nan;95576.06;2060553;28;1214;-58
2022/05/05 03:06:17;;;;;;;;;;;;;;;14.45;nan;95575.22;2058949;28;1906;-57
2022/05/05 03:07:18;;;;;;;;;;;;;;;13.72;nan;95580.94;2063487;28;1506;-58
2022/05/05 03:08:20;;;;;;;;;;;;;;;13.62;nan;95583.66;2057776;28;1716;-58
2022/05/05 03:09:21;;;;;;;;;;;;;;;13.42;nan;95576.88;2051652;28;1590;-58
2022/05/05 03:10:23;;;;;;;;;;;;;;;13.32;nan;95576.97;2060913;28;1592;-58
2022/05/05 03:11:25;;;;;;;;;;;;;;;13.11;nan;95585.16;2064408;28;1506;-58
2022/05/05 03:12:26;;;;;;;;;;;;;;;13.08;nan;95580.19;2066131;28;995;-57
2022/05/05 03:13:28;;;;;;;;;;;;;;;13.00;nan;95588.03;2064228;28;1484;-58
2022/05/05 03:14:30;;;;;;;;;;;;;;;12.80;nan;95586.50;2066682;28;1210;-57
2022/05/05 03:15:31;;;;;;;;;;;;;;;12.87;nan;95590.22;2065033;28;1562;-57
2022/05/05 03:16:33;;;;;;;;;;;;;;;12.69;nan;95585.75;2066491;28;1152;-57
2022/05/05 03:17:35;;;;;;;;;;;;;;;12.62;nan;95587.31;2064979;28;1613;-57
2022/05/05 03:18:40;;;;;;;;;;;;;;;12.69;nan;95588.41;2062711;28;1618;-57
2022/05/05 03:19:42;;;;;;;;;;;;;;;13.03;nan;95587.75;2058570;28;1105;-57
2022/05/05 03:20:43;;;;;;;;;;;;;;;12.91;nan;95588.94;2045600;28;1650;-58
2022/05/05 03:21:45;;;;;;;;;;;;;;;12.84;nan;95587.91;2058365;28;1206;-58
2022/05/05 03:22:46;;;;;;;;;;;;;;;12.79;nan;95588.31;2058115;28;1507;-58
2022/05/05 03:23:48;;;;;;;;;;;;;;;12.80;nan;95582.06;2058138;28;1018;-57
2022/05/05 03:24:50;;;;;;;;;;;;;;;12.68;nan;95583.25;2060768;28;1448;-57
2022/05/05 03:25:51;;;;;;;;;;;;;;;12.81;nan;95586.38;2066424;28;989;-57
2022/05/05 03:26:53;;;;;;;;;;;;;;;12.93;nan;95581.72;2060556;28;2000;-58
2022/05/05 03:27:54;;;;;;;;;;;;;;;12.98;nan;95586.56;2060368;28;1618;-58
2022/05/05 03:28:56;;;;;;;;;;;;;;;13.13;nan;95592.94;2064108;28;1720;-58
2022/05/05 03:29:57;;;;;;;;;;;;;;;13.06;nan;95587.47;2061693;28;1553;-57
2022/05/05 03:30:59;;;;;;;;;;;;;;;13.09;nan;95587.16;2057643;28;1690;-57
2022/05/05 03:32:01;;;;;;;;;;;;;;;13.10;nan;95582.69;2049107;28;1098;-59
2022/05/05 03:33:03;;;;;;;;;;;;;;;13.16;nan;95587.38;2065362;28;1328;-58
2022/05/05 03:34:06;;;;;;;;;;;;;;;13.11;nan;95584.34;2061426;28;1644;-57
2022/05/05 03:35:08;;;;;;;;;;;;;;;13.18;nan;95588.88;2062956;28;1492;-57
2022/05/05 03:36:10;;;;;;;;;;;;;;;13.07;nan;95583.84;2061439;28;1610;-58
2022/05/05 03:37:12;;;;;;;;;;;;;;;12.94;nan;95591.28;2065129;28;1485;-57
2022/05/05 03:38:13;;;;;;;;;;;;;;;12.98;nan;95595.28;2057100;28;1576;-57
2022/05/05 03:39:15;;;;;;;;;;;;;;;12.91;nan;95594.22;2057859;28;932;-58
2022/05/05 03:40:17;;;;;;;;;;;;;;;12.72;nan;95593.38;2058138;28;1661;-58
2022/05/05 03:41:19;;;;;;;;;;;;;;;12.77;nan;95592.09;2056220;28;1661;-58
2022/05/05 03:42:21;;;;;;;;;;;;;;;12.69;nan;95592.84;2058449;28;1730;-57
2022/05/05 03:43:22;;;;;;;;;;;;;;;12.68;nan;95597.28;2057135;28;1191;-58
2022/05/05 03:44:24;;;;;;;;;;;;;;;12.95;nan;95598.22;2065862;28;1549;-58
2022/05/05 03:45:26;;;;;;;;;;;;;;;13.18;nan;95594.16;2072038;28;1529;-62
2022/05/05 03:46:29;;;;;;;;;;;;;;;14.95;nan;95595.53;2057295;28;1902;-56
2022/05/05 03:47:31;;;;;;;;;;;;;;;15.46;nan;95589.34;2051342;28;1684;-57
2022/05/05 03:48:32;;;;;;;;;;;;;;;14.49;nan;95587.13;2054973;28;1485;-57
2022/05/05 03:49:34;;;;;;;;;;;;;;;13.62;nan;95594.22;2056168;28;1387;-57
2022/05/05 03:50:36;;;;;;;;;;;;;;;13.01;nan;95595.00;2055876;28;1493;-58
2022/05/05 03:51:37;;;;;;;;;;;;;;;12.83;nan;95591.50;2055823;28;1827;-58
2022/05/05 03:52:39;;;;;;;;;;;;;;;12.66;nan;95591.34;2056279;28;1353;-57
2022/05/05 03:53:41;;;;;;;;;;;;;;;12.63;nan;95588.16;2056203;28;1646;-57
2022/05/05 03:54:42;;;;;;;;;;;;;;;12.38;nan;95592.31;2056782;28;1448;-59
2022/05/05 03:55:44;;;;;;;;;;;;;;;12.93;nan;95587.81;2066252;28;1517;-59
2022/05/05 03:56:46;;;;;;;;;;;;;;;13.39;nan;95599.13;2057097;28;1447;-56
2022/05/05 03:57:48;;;;;;;;;;;;;;;13.65;nan;95595.72;2063204;28;1462;-60
2022/05/05 03:58:50;;;;;;;;;;;;;;;13.83;nan;95601.81;2059032;28;1686;-62
2022/05/05 03:59:52;;;;;;;;;;;;;;;13.60;nan;95596.19;2060067;28;1184;-57
2022/05/05 04:00:53;;;;;;;;;;;;;;;13.07;nan;95596.19;2057186;28;1031;-57
2022/05/05 04:01:55;;;;;;;;;;;;;;;12.63;nan;95596.91;2059940;28;1528;-57
2022/05/05 04:04:17;;;;;;;;;;;;;;;12.67;nan;95595.63;2056751;28;1493;-56
2022/05/05 04:05:19;;;;;;;;;;;;;;;12.70;nan;95591.88;2054063;28;1282;-58
2022/05/05 04:06:20;;;;;;;;;;;;;;;12.78;nan;95599.03;2050712;28;1534;-57
2022/05/05 04:07:22;;;;;;;;;;;;;;;12.66;nan;95599.25;2058620;28;1910;-57
2022/05/05 04:08:23;;;;;;;;;;;;;;;12.59;nan;95600.81;2057271;28;1763;-57
2022/05/05 04:09:25;;;;;;;;;;;;;;;13.47;nan;95605.47;2062647;28;1578;-57
2022/05/05 04:10:27;;;;;;;;;;;;;;;14.27;nan;95604.34;2065789;28;1118;-57
2022/05/05 04:11:30;;;;;;;;;;;;;;;14.92;nan;95603.81;2057809;28;1636;-58
2022/05/05 04:12:32;;;;;;;;;;;;;;;15.42;nan;95610.84;2058239;28;1007;-57
2022/05/05 04:13:33;;;;;;;;;;;;;;;15.80;nan;95608.53;2058139;28;1408;-58
2022/05/05 04:14:40;;;;;;;;;;;;;;;16.11;nan;95612.34;2057580;28;1332;-57
2022/05/05 04:15:41;;;;;;;;;;;;;;;16.34;nan;95617.75;2057962;28;1357;-57
2022/05/05 04:16:43;;;;;;;;;;;;;;;16.48;nan;95606.41;2054745;28;998;-59
2022/05/05 04:17:44;;;;;;;;;;;;;;;16.64;nan;95610.81;2044619;28;1049;-58
2022/05/05 04:18:47;;;;;;;;;;;;;;;16.74;nan;95612.28;2049674;29;1043;-57
2022/05/05 04:19:49;;;;;;;;;;;;;;;16.83;nan;95610.44;2056162;28;1461;-58
2022/05/05 04:20:51;;;;;;;;;;;;;;;16.91;nan;95617.53;2065851;28;1169;-58
2022/05/05 04:21:52;;;;;;;;;;;;;;;16.98;nan;95623.78;2065764;28;1604;-57
2022/05/05 04:22:55;;;;;;;;;;;;;;;17.04;nan;95617.78;2064998;28;1093;-58
2022/05/05 04:23:57;;;;;;;;;;;;;;;17.09;nan;95617.28;2065371;28;1106;-57
2022/05/05 04:24:59;;;;;;;;;;;;;;;17.13;nan;95618.56;2064836;28;843;-58
2022/05/05 04:26:01;;;;;;;;;;;;;;;17.17;nan;95618.03;2056029;28;1930;-57
2022/05/05 04:27:03;;;;;;;;;;;;;;;17.21;nan;95618.50;2049374;28;1903;-57
2022/05/05 04:28:05;;;;;;;;;;;;;;;17.25;nan;95616.34;2045592;28;1081;-59
2022/05/05 04:29:08;;;;;;;;;;;;;;;17.27;nan;95620.50;2045103;28;1524;-58
2022/05/05 04:30:10;;;;;;;;;;;;;;;17.33;nan;95621.63;2048883;28;987;-58
2022/05/05 04:31:13;;;;;;;;;;;;;;;17.35;nan;95620.41;2049471;28;1015;-58
2022/05/05 04:32:15;;;;;;;;;;;;;;;17.37;nan;95623.72;2049909;28;820;-57
2022/05/05 04:33:17;;;;;;;;;;;;;;;17.40;nan;95623.38;2049693;28;1807;-58
2022/05/05 04:34:18;;;;;;;;;;;;;;;17.42;nan;95621.38;2049964;28;1014;-57
2022/05/05 04:35:20;;;;;;;;;;;;;;;17.45;nan;95630.81;2049844;28;1026;-57
2022/05/05 04:36:22;;;;;;;;;;;;;;;17.48;nan;95624.34;2049683;29;1026;-58
2022/05/05 04:37:23;;;;;;;;;;;;;;;17.49;nan;95634.78;2049364;29;1157;-57
2022/05/05 04:38:25;;;;;;;;;;;;;;;17.50;nan;95628.47;2049093;28;1371;-57
2022/05/05 04:39:26;;;;;;;;;;;;;;;17.52;nan;95631.75;2045602;29;1387;-58
2022/05/05 04:40:28;;;;;;;;;;;;;;;17.55;nan;95635.88;2044139;29;1715;-57
2022/05/05 04:41:30;;;;;;;;;;;;;;;17.56;nan;95635.72;2049133;29;1031;-57
2022/05/05 04:42:31;;;;;;;;;;;;;;;17.58;nan;95644.31;2049094;28;1086;-57
2022/05/05 04:43:33;;;;;;;;;;;;;;;17.58;nan;95646.97;2049123;28;1133;-57
2022/05/05 04:44:35;;;;;;;;;;;;;;;17.60;nan;95650.31;2048869;28;1098;-57
2022/05/05 04:45:37;;;;;;;;;;;;;;;17.62;nan;95643.00;2048977;28;998;-57
2022/05/05 04:46:38;;;;;;;;;;;;;;;17.62;nan;95640.31;2048972;29;764;-57
2022/05/05 04:47:40;;;;;;;;;;;;;;;17.65;nan;95642.63;2049073;29;1989;-58
2022/05/05 04:48:42;;;;;;;;;;;;;;;17.66;nan;95641.63;2048822;28;1004;-58
2022/05/05 04:49:43;;;;;;;;;;;;;;;17.68;nan;95641.44;2049311;29;1098;-58
2022/05/05 04:50:45;;;;;;;;;;;;;;;17.70;nan;95638.59;2046097;28;1070;-57
2022/05/05 04:51:47;;;;;;;;;;;;;;;17.73;nan;95639.09;2042984;29;1277;-58
2022/05/05 04:52:48;;;;;;;;;;;;;;;17.73;nan;95635.63;2049030;29;1344;-57
2022/05/05 04:53:50;;;;;;;;;;;;;;;17.74;nan;95639.94;2049481;28;1270;-59
2022/05/05 04:54:52;;;;;;;;;;;;;;;17.74;nan;95630.13;2049674;29;1247;-58
2022/05/05 04:55:53;;;;;;;;;;;;;;;17.76;nan;95632.63;2049671;29;1100;-58
2022/05/05 04:56:57;;;;;;;;;;;;;;;17.76;nan;95630.78;2049604;29;995;-57
2022/05/05 04:57:59;;;;;;;;;;;;;;;17.78;nan;95634.06;2049998;29;1074;-57
2022/05/05 04:59:00;;;;;;;;;;;;;;;17.79;nan;95632.25;2049439;28;1157;-59
2022/05/05 05:00:05;;;;;;;;;;;;;;;17.81;nan;95635.53;2049934;29;1019;-58
2022/05/05 05:01:07;;;;;;;;;;;;;;;17.82;nan;95631.91;2049673;28;1034;-57
2022/05/05 05:02:09;;;;;;;;;;;;;;;17.82;nan;95631.91;2045709;28;883;-58
2022/05/05 05:03:32;;;;;;;;;;;;;;;17.83;nan;95621.06;2044751;28;1145;-58
2022/05/05 05:04:32;;;;;;;;;;;;;;;17.85;nan;95631.53;2049633;28;1475;-58
2022/05/05 05:05:34;;;;;;;;;;;;;;;17.86;nan;95625.22;2049633;29;1011;-58
2022/05/05 05:06:36;;;;;;;;;;;;;;;17.85;nan;95629.72;2049117;28;1050;-58
2022/05/05 05:07:37;;;;;;;;;;;;;;;17.86;nan;95627.88;2049977;29;1906;-59
2022/05/05 05:08:39;;;;;;;;;;;;;;;17.88;nan;95626.69;2049554;29;1093;-58
2022/05/05 05:09:41;;;;;;;;;;;;;;;17.90;nan;95628.34;2049719;28;1098;-58
2022/05/05 05:10:43;;;;;;;;;;;;;;;17.90;nan;95633.66;2049773;29;1187;-58
2022/05/05 05:11:48;;;;;;;;;;;;;;;17.90;nan;95634.50;2049563;28;1039;-58
2022/05/05 05:12:50;;;;;;;;;;;;;;;17.90;nan;95631.84;2049742;29;995;-59
2022/05/05 05:13:52;;;;;;;;;;;;;;;17.92;nan;95628.97;2044484;28;1276;-59
2022/05/05 05:14:53;;;;;;;;;;;;;;;17.92;nan;95636.97;2045036;29;1371;-56
2022/05/05 05:15:55;;;;;;;;;;;;;;;17.92;nan;95627.16;2049923;28;1110;-58
2022/05/05 05:16:57;;;;;;;;;;;;;;;17.93;nan;95636.78;2049658;28;814;-58
2022/05/05 05:17:59;;;;;;;;;;;;;;;17.94;nan;95645.59;2049683;29;1074;-56
2022/05/05 05:19:00;;;;;;;;;;;;;;;17.96;nan;95643.59;2049407;29;1017;-58
2022/05/05 05:20:03;;;;;;;;;;;;;;;17.96;nan;95639.09;2049425;28;1316;-58
2022/05/05 05:21:04;;;;;;;;;;;;;;;17.96;nan;95638.28;2049771;28;1140;-58
2022/05/05 05:22:06;;;;;;;;;;;;;;;17.97;nan;95639.91;2048974;29;1031;-57
2022/05/05 05:23:08;;;;;;;;;;;;;;;17.96;nan;95633.78;2049557;28;1102;-63
2022/05/05 05:24:10;;;;;;;;;;;;;;;17.98;nan;95639.75;2049670;28;878;-57
2022/05/05 05:25:12;;;;;;;;;;;;;;;17.98;nan;95644.22;2044799;28;1203;-58
2022/05/05 05:26:13;;;;;;;;;;;;;;;17.99;nan;95648.53;2052223;28;1470;-56
2022/05/05 05:27:15;;;;;;;;;;;;;;;17.99;nan;95652.03;2056719;28;991;-57
2022/05/05 05:28:17;;;;;;;;;;;;;;;18.00;nan;95651.00;2049409;28;2034;-59
2022/05/05 05:29:18;;;;;;;;;;;;;;;18.00;nan;95648.34;2063986;28;1020;-57
2022/05/05 05:30:20;;;;;;;;;;;;;;;17.99;nan;95649.38;2064476;28;1093;-57
2022/05/05 05:31:22;;;;;;;;;;;;;;;17.99;nan;95649.38;2049629;28;1099;-57
2022/05/05 05:32:23;;;;;;;;;;;;;;;18.01;nan;95647.38;2048984;28;1086;-57
2022/05/05 05:33:25;;;;;;;;;;;;;;;18.02;nan;95650.84;2064514;28;1064;-57
2022/05/05 05:34:26;;;;;;;;;;;;;;;18.02;nan;95653.50;2064387;28;1166;-57
2022/05/05 05:35:28;;;;;;;;;;;;;;;18.02;nan;95662.31;2049456;29;1122;-57
2022/05/05 05:36:30;;;;;;;;;;;;;;;18.05;nan;95653.97;2044486;28;1061;-57
2022/05/05 05:37:31;;;;;;;;;;;;;;;18.06;nan;95649.47;2044723;28;1353;-57
2022/05/05 05:38:33;;;;;;;;;;;;;;;18.05;nan;95653.97;2049362;29;995;-57
2022/05/05 05:39:34;;;;;;;;;;;;;;;18.06;nan;95655.59;2049635;29;1110;-57
2022/05/05 05:40:36;;;;;;;;;;;;;;;18.07;nan;95659.13;2049498;28;1102;-57
2022/05/05 05:41:38;;;;;;;;;;;;;;;18.08;nan;95658.91;2049601;28;1023;-58
2022/05/05 05:42:39;;;;;;;;;;;;;;;18.09;nan;95655.25;2049255;29;1087;-58
2022/05/05 05:43:41;;;;;;;;;;;;;;;18.09;nan;95660.56;2049083;29;1022;-57
2022/05/05 05:44:43;;;;;;;;;;;;;;;18.10;nan;95661.41;2049434;29;1086;-57
2022/05/05 05:45:45;;;;;;;;;;;;;;;18.09;nan;95660.56;2049527;28;1129;-57
2022/05/05 05:46:46;;;;;;;;;;;;;;;18.10;nan;95656.91;2049496;29;1086;-57
2022/05/05 05:47:48;;;;;;;;;;;;;;;18.11;nan;95657.72;2044690;28;1900;-57
2022/05/05 05:48:50;;;;;;;;;;;;;;;18.12;nan;95658.56;2044592;28;1263;-57
2022/05/05 05:49:51;;;;;;;;;;;;;;;18.12;nan;95658.56;2049595;28;1102;-58
2022/05/05 05:50:53;;;;;;;;;;;;;;;18.12;nan;95653.22;2048960;29;793;-57